WUK1356 EPPO-EGGW
Flight info
| Callsign | WUK1356 |
|---|---|
| Flight time | 1h 38m |
| Altitude | 36000 |
| Route | ELSUP Z181 XIGRI DCT NOGRO M40 RINIS |
| Aircraft | A21N/M-SDE2E3FGHIRWXY/LB1 |
Departure
| Time | 2026-05-04 20:25 |
|---|---|
| Airport | Poznań-Ławica Airport (EPPO) |
Arrival
| Time | 2026-05-04 22:03 |
|---|---|
| Airport | London Luton Airport (EGGW) |
| Time | Latitude | Longitude | Altitude | Speed | Heading |
|---|---|---|---|---|---|
| 2026-05-04 19:56 | 52.41554 | 16.83267 | 291 ft | 0 kts | 193° |
| 2026-05-04 20:15 | 52.41555 | 16.83267 | 291 ft | 1 kts | 193° |
| 2026-05-04 20:16 | 52.41569 | 16.83274 | 291 ft | 2 kts | 209° |
| 2026-05-04 20:16 | 52.41581 | 16.83289 | 291 ft | 2 kts | 225° |
| 2026-05-04 20:16 | 52.41590 | 16.83308 | 291 ft | 2 kts | 243° |
| 2026-05-04 20:16 | 52.41595 | 16.83331 | 291 ft | 2 kts | 260° |
| 2026-05-04 20:17 | 52.41596 | 16.83356 | 291 ft | 2 kts | 277° |
| 2026-05-04 20:17 | 52.41594 | 16.83367 | 291 ft | 1 kts | 286° |
| 2026-05-04 20:17 | 52.41594 | 16.83373 | 291 ft | 0 kts | 284° |
| 2026-05-04 20:22 | 52.41589 | 16.83394 | 291 ft | 5 kts | 106° |
| 2026-05-04 20:22 | 52.41574 | 16.83519 | 290 ft | 16 kts | 96° |
| 2026-05-04 20:22 | 52.41565 | 16.83714 | 287 ft | 15 kts | 94° |
| 2026-05-04 20:23 | 52.41567 | 16.83864 | 287 ft | 11 kts | 65° |
| 2026-05-04 20:23 | 52.41624 | 16.83970 | 287 ft | 13 kts | 34° |
| 2026-05-04 20:23 | 52.41710 | 16.84030 | 288 ft | 13 kts | 19° |
| 2026-05-04 20:23 | 52.41795 | 16.84060 | 289 ft | 8 kts | 342° |
| 2026-05-04 20:24 | 52.41808 | 16.84051 | 289 ft | 0 kts | 330° |
| 2026-05-04 20:24 | 52.41818 | 16.84041 | 290 ft | 3 kts | 326° |
| 2026-05-04 20:24 | 52.41837 | 16.84001 | 291 ft | 5 kts | 295° |
| 2026-05-04 20:24 | 52.41869 | 16.83841 | 292 ft | 41 kts | 285° |
| 2026-05-04 20:25 | 52.42036 | 16.82982 | 298 ft | 116 kts | 287° |
| 2026-05-04 20:25 | 52.42339 | 16.81385 | 373 ft | 169 kts | 288° |
| 2026-05-04 20:25 | 52.42732 | 16.79525 | 1120 ft | 169 kts | 291° |
| 2026-05-04 20:25 | 52.43131 | 16.77814 | 1930 ft | 159 kts | 285° |
| 2026-05-04 20:26 | 52.43028 | 16.76030 | 2258 ft | 165 kts | 234° |
| 2026-05-04 20:26 | 52.42142 | 16.74792 | 2523 ft | 176 kts | 211° |
| 2026-05-04 20:26 | 52.41045 | 16.73756 | 2805 ft | 190 kts | 210° |
| 2026-05-04 20:26 | 52.39854 | 16.72591 | 3104 ft | 205 kts | 212° |
| 2026-05-04 20:27 | 52.38739 | 16.71035 | 3383 ft | 221 kts | 236° |
| 2026-05-04 20:27 | 52.38187 | 16.68595 | 3688 ft | 237 kts | 260° |
| 2026-05-04 20:27 | 52.37966 | 16.65827 | 4046 ft | 255 kts | 264° |
| 2026-05-04 20:27 | 52.37774 | 16.62867 | 4541 ft | 267 kts | 264° |
| 2026-05-04 20:28 | 52.37553 | 16.59851 | 5268 ft | 270 kts | 263° |
| 2026-05-04 20:28 | 52.37302 | 16.56786 | 6013 ft | 272 kts | 262° |
| 2026-05-04 20:28 | 52.37033 | 16.53747 | 6726 ft | 275 kts | 262° |
| 2026-05-04 20:28 | 52.36746 | 16.50641 | 7445 ft | 278 kts | 262° |
| 2026-05-04 20:29 | 52.36449 | 16.47509 | 8156 ft | 281 kts | 262° |
| 2026-05-04 20:29 | 52.36144 | 16.44342 | 8850 ft | 283 kts | 261° |
| 2026-05-04 20:29 | 52.35836 | 16.41184 | 9511 ft | 286 kts | 261° |
| 2026-05-04 20:29 | 52.35519 | 16.37952 | 10156 ft | 289 kts | 261° |
| 2026-05-04 20:30 | 52.35193 | 16.34635 | 10545 ft | 302 kts | 261° |
| 2026-05-04 20:30 | 52.34849 | 16.31154 | 10826 ft | 317 kts | 261° |
| 2026-05-04 20:30 | 52.34491 | 16.27519 | 11102 ft | 332 kts | 261° |
| 2026-05-04 20:30 | 52.34111 | 16.23687 | 11409 ft | 346 kts | 261° |
| 2026-05-04 20:31 | 52.33720 | 16.19755 | 11953 ft | 351 kts | 261° |
| 2026-05-04 20:31 | 52.33322 | 16.15787 | 12580 ft | 354 kts | 261° |
| 2026-05-04 20:31 | 52.32927 | 16.11857 | 13160 ft | 357 kts | 261° |
| 2026-05-04 20:31 | 52.32521 | 16.07847 | 13732 ft | 360 kts | 261° |
| 2026-05-04 20:32 | 52.32104 | 16.03743 | 14301 ft | 363 kts | 261° |
| 2026-05-04 20:32 | 52.31689 | 15.99672 | 14846 ft | 365 kts | 261° |
| 2026-05-04 20:32 | 52.31272 | 15.95602 | 15372 ft | 368 kts | 261° |
| 2026-05-04 20:32 | 52.30843 | 15.91441 | 15893 ft | 371 kts | 261° |
| 2026-05-04 20:33 | 52.30410 | 15.87252 | 16401 ft | 374 kts | 261° |
| 2026-05-04 20:33 | 52.29977 | 15.83079 | 16892 ft | 376 kts | 261° |
| 2026-05-04 20:33 | 52.29537 | 15.78867 | 17371 ft | 379 kts | 261° |
| 2026-05-04 20:33 | 52.29088 | 15.74581 | 17844 ft | 381 kts | 261° |
| 2026-05-04 20:34 | 52.28640 | 15.70297 | 18304 ft | 384 kts | 261° |
| 2026-05-04 20:34 | 52.28242 | 15.66020 | 18739 ft | 387 kts | 266° |
| 2026-05-04 20:34 | 52.28497 | 15.61607 | 19128 ft | 390 kts | 287° |
| 2026-05-04 20:34 | 52.29638 | 15.57633 | 19546 ft | 392 kts | 306° |
| 2026-05-04 20:35 | 52.31557 | 15.54466 | 19951 ft | 394 kts | 326° |
| 2026-05-04 20:35 | 52.33990 | 15.52494 | 20355 ft | 395 kts | 340° |
| 2026-05-04 20:35 | 52.36583 | 15.51036 | 20783 ft | 397 kts | 342° |
| 2026-05-04 20:35 | 52.39189 | 15.49619 | 21158 ft | 400 kts | 342° |
| 2026-05-04 20:36 | 52.41860 | 15.48144 | 21545 ft | 402 kts | 341° |
| 2026-05-04 20:36 | 52.44508 | 15.46655 | 21928 ft | 404 kts | 341° |
| 2026-05-04 20:36 | 52.47131 | 15.45165 | 22298 ft | 407 kts | 341° |
| 2026-05-04 20:36 | 52.49719 | 15.43218 | 22627 ft | 409 kts | 326° |
| 2026-05-04 20:37 | 52.51807 | 15.40093 | 22969 ft | 411 kts | 308° |
| 2026-05-04 20:37 | 52.53203 | 15.35990 | 23314 ft | 412 kts | 289° |
| 2026-05-04 20:37 | 52.53737 | 15.31503 | 23619 ft | 414 kts | 271° |
| 2026-05-04 20:37 | 52.53639 | 15.26773 | 23981 ft | 415 kts | 266° |
| 2026-05-04 20:38 | 52.53426 | 15.21985 | 24300 ft | 418 kts | 265° |
| 2026-05-04 20:38 | 52.53214 | 15.17261 | 24607 ft | 420 kts | 265° |
| 2026-05-04 20:38 | 52.53014 | 15.12423 | 24930 ft | 422 kts | 266° |
| 2026-05-04 20:38 | 52.52829 | 15.07640 | 25243 ft | 424 kts | 266° |
| 2026-05-04 20:39 | 52.52649 | 15.02801 | 25553 ft | 426 kts | 266° |
| 2026-05-04 20:39 | 52.52470 | 14.97936 | 25854 ft | 428 kts | 266° |
| 2026-05-04 20:39 | 52.52294 | 14.93070 | 26146 ft | 430 kts | 266° |
| 2026-05-04 20:39 | 52.52115 | 14.88167 | 26435 ft | 431 kts | 266° |
| 2026-05-04 20:40 | 52.51929 | 14.83191 | 26721 ft | 433 kts | 266° |
| 2026-05-04 20:40 | 52.51743 | 14.78299 | 26995 ft | 435 kts | 266° |
| 2026-05-04 20:40 | 52.51551 | 14.73329 | 27267 ft | 437 kts | 266° |
| 2026-05-04 20:40 | 52.51358 | 14.68366 | 27532 ft | 438 kts | 266° |
| 2026-05-04 20:41 | 52.51165 | 14.63313 | 27793 ft | 440 kts | 267° |
| 2026-05-04 20:41 | 52.51089 | 14.58283 | 28047 ft | 442 kts | 270° |
| 2026-05-04 20:41 | 52.51089 | 14.53292 | 28297 ft | 443 kts | 270° |
| 2026-05-04 20:41 | 52.51098 | 14.48236 | 28541 ft | 445 kts | 270° |
| 2026-05-04 20:42 | 52.51103 | 14.43161 | 28784 ft | 446 kts | 270° |
| 2026-05-04 20:42 | 52.51105 | 14.38072 | 29070 ft | 446 kts | 270° |
| 2026-05-04 20:42 | 52.51102 | 14.32967 | 29408 ft | 445 kts | 270° |
| 2026-05-04 20:42 | 52.51096 | 14.27912 | 29734 ft | 444 kts | 269° |
| 2026-05-04 20:43 | 52.51087 | 14.22830 | 30038 ft | 443 kts | 269° |
| 2026-05-04 20:43 | 52.51075 | 14.17745 | 30327 ft | 442 kts | 269° |
| 2026-05-04 20:43 | 52.51061 | 14.12754 | 30604 ft | 442 kts | 269° |
| 2026-05-04 20:43 | 52.51044 | 14.07696 | 30879 ft | 441 kts | 269° |
| 2026-05-04 20:44 | 52.51026 | 14.02666 | 31145 ft | 440 kts | 269° |
| 2026-05-04 20:44 | 52.51005 | 13.97649 | 31405 ft | 440 kts | 269° |
| 2026-05-04 20:44 | 52.50982 | 13.92650 | 31662 ft | 439 kts | 269° |
| 2026-05-04 20:44 | 52.50957 | 13.87636 | 31920 ft | 439 kts | 269° |
| 2026-05-04 20:45 | 52.50930 | 13.82577 | 32179 ft | 438 kts | 269° |
| 2026-05-04 20:45 | 52.50900 | 13.77597 | 32432 ft | 437 kts | 269° |
| 2026-05-04 20:45 | 52.50869 | 13.72608 | 32682 ft | 437 kts | 269° |
| 2026-05-04 20:45 | 52.50836 | 13.67671 | 32926 ft | 436 kts | 269° |
| 2026-05-04 20:46 | 52.50801 | 13.62696 | 33165 ft | 436 kts | 269° |
| 2026-05-04 20:46 | 52.50763 | 13.57710 | 33397 ft | 435 kts | 269° |
| 2026-05-04 20:46 | 52.50723 | 13.52705 | 33624 ft | 435 kts | 269° |
| 2026-05-04 20:46 | 52.50682 | 13.47759 | 33852 ft | 435 kts | 269° |
| 2026-05-04 20:47 | 52.50639 | 13.42857 | 34081 ft | 434 kts | 269° |
| 2026-05-04 20:47 | 52.50593 | 13.37860 | 34314 ft | 434 kts | 269° |
| 2026-05-04 20:47 | 52.50545 | 13.32920 | 34534 ft | 433 kts | 269° |
| 2026-05-04 20:47 | 52.50496 | 13.27996 | 34747 ft | 433 kts | 269° |
| 2026-05-04 20:48 | 52.50444 | 13.23018 | 34958 ft | 432 kts | 269° |
| 2026-05-04 20:48 | 52.50391 | 13.18105 | 35164 ft | 432 kts | 269° |
| 2026-05-04 20:48 | 52.50336 | 13.13179 | 35366 ft | 432 kts | 269° |
| 2026-05-04 20:48 | 52.50279 | 13.08281 | 35562 ft | 432 kts | 269° |
| 2026-05-04 20:49 | 52.50219 | 13.03401 | 35751 ft | 431 kts | 269° |
| 2026-05-04 20:49 | 52.50157 | 12.98446 | 35923 ft | 431 kts | 269° |
| 2026-05-04 20:49 | 52.50027 | 12.88541 | 35962 ft | 439 kts | 269° |
| 2026-05-04 20:50 | 52.49887 | 12.78504 | 35961 ft | 442 kts | 269° |
| 2026-05-04 20:50 | 52.49737 | 12.68391 | 35962 ft | 442 kts | 269° |
| 2026-05-04 20:51 | 52.49581 | 12.58371 | 35964 ft | 442 kts | 269° |
| 2026-05-04 20:51 | 52.49414 | 12.48300 | 35965 ft | 442 kts | 269° |
| 2026-05-04 20:52 | 52.49239 | 12.38187 | 35965 ft | 442 kts | 269° |
| 2026-05-04 20:52 | 52.49054 | 12.28083 | 35965 ft | 442 kts | 268° |
| 2026-05-04 20:53 | 52.48864 | 12.18077 | 35964 ft | 442 kts | 268° |
| 2026-05-04 20:53 | 52.48662 | 12.07930 | 35963 ft | 442 kts | 268° |
| 2026-05-04 20:54 | 52.48452 | 11.97864 | 35962 ft | 442 kts | 268° |
| 2026-05-04 20:54 | 52.48235 | 11.87823 | 35963 ft | 442 kts | 268° |
| 2026-05-04 20:55 | 52.48008 | 11.77731 | 35963 ft | 442 kts | 268° |
| 2026-05-04 20:55 | 52.47774 | 11.67688 | 35964 ft | 442 kts | 268° |
| 2026-05-04 20:56 | 52.47531 | 11.57640 | 35967 ft | 442 kts | 268° |
| 2026-05-04 20:56 | 52.47278 | 11.47562 | 35979 ft | 442 kts | 268° |
| 2026-05-04 20:57 | 52.47019 | 11.37539 | 35985 ft | 442 kts | 268° |
| 2026-05-04 20:57 | 52.46755 | 11.27662 | 35987 ft | 442 kts | 267° |
| 2026-05-04 20:58 | 52.46478 | 11.17568 | 35987 ft | 442 kts | 267° |
| 2026-05-04 20:58 | 52.46194 | 11.07577 | 35987 ft | 442 kts | 267° |
| 2026-05-04 20:59 | 52.45900 | 10.97525 | 35989 ft | 442 kts | 267° |
| 2026-05-04 20:59 | 52.45596 | 10.87444 | 35991 ft | 442 kts | 267° |
| 2026-05-04 21:00 | 52.45285 | 10.77418 | 35992 ft | 442 kts | 267° |
| 2026-05-04 21:00 | 52.44965 | 10.67373 | 35992 ft | 442 kts | 267° |
| 2026-05-04 21:01 | 52.44638 | 10.57353 | 35991 ft | 442 kts | 267° |
| 2026-05-04 21:01 | 52.44300 | 10.47278 | 35989 ft | 442 kts | 267° |
| 2026-05-04 21:02 | 52.43956 | 10.37277 | 35989 ft | 442 kts | 267° |
| 2026-05-04 21:02 | 52.43603 | 10.27239 | 35989 ft | 442 kts | 266° |
| 2026-05-04 21:03 | 52.43242 | 10.17230 | 35990 ft | 442 kts | 266° |
| 2026-05-04 21:03 | 52.42869 | 10.07119 | 35990 ft | 442 kts | 266° |
| 2026-05-04 21:04 | 52.42490 | 9.97086 | 35991 ft | 442 kts | 266° |
| 2026-05-04 21:04 | 52.42103 | 9.87083 | 35991 ft | 442 kts | 266° |
| 2026-05-04 21:05 | 52.41708 | 9.77081 | 35990 ft | 442 kts | 266° |
| 2026-05-04 21:05 | 52.41304 | 9.67051 | 35989 ft | 442 kts | 266° |
| 2026-05-04 21:06 | 52.40892 | 9.57061 | 35989 ft | 442 kts | 266° |
| 2026-05-04 21:06 | 52.40469 | 9.46989 | 35976 ft | 442 kts | 266° |
| 2026-05-04 21:07 | 52.40039 | 9.36976 | 35969 ft | 442 kts | 266° |
| 2026-05-04 21:07 | 52.39602 | 9.26967 | 35967 ft | 442 kts | 265° |
| 2026-05-04 21:08 | 52.39157 | 9.16966 | 35967 ft | 442 kts | 265° |
| 2026-05-04 21:08 | 52.38703 | 9.06973 | 35966 ft | 442 kts | 265° |
| 2026-05-04 21:09 | 52.38237 | 8.96908 | 35966 ft | 442 kts | 265° |
| 2026-05-04 21:09 | 52.37765 | 8.86927 | 35965 ft | 442 kts | 265° |
| 2026-05-04 21:10 | 52.37283 | 8.76891 | 35963 ft | 442 kts | 265° |
| 2026-05-04 21:10 | 52.36792 | 8.66856 | 35963 ft | 442 kts | 265° |
| 2026-05-04 21:11 | 52.36297 | 8.56890 | 35964 ft | 442 kts | 265° |
| 2026-05-04 21:11 | 52.35789 | 8.46864 | 35965 ft | 442 kts | 265° |
| 2026-05-04 21:12 | 52.35275 | 8.36880 | 35967 ft | 442 kts | 265° |
| 2026-05-04 21:12 | 52.34751 | 8.26837 | 35967 ft | 442 kts | 265° |
| 2026-05-04 21:13 | 52.34221 | 8.16855 | 35966 ft | 442 kts | 265° |
| 2026-05-04 21:13 | 52.33680 | 8.06833 | 35964 ft | 442 kts | 265° |
| 2026-05-04 21:14 | 52.33133 | 7.96860 | 35963 ft | 442 kts | 265° |
| 2026-05-04 21:14 | 52.32577 | 7.86894 | 35963 ft | 442 kts | 265° |
| 2026-05-04 21:15 | 52.32010 | 7.76876 | 35962 ft | 442 kts | 265° |
| 2026-05-04 21:15 | 52.31436 | 7.66885 | 35964 ft | 442 kts | 265° |
| 2026-05-04 21:16 | 52.30854 | 7.56917 | 35965 ft | 442 kts | 265° |
| 2026-05-04 21:16 | 52.30261 | 7.46901 | 35964 ft | 442 kts | 265° |
| 2026-05-04 21:17 | 52.29664 | 7.36958 | 35964 ft | 442 kts | 265° |
| 2026-05-04 21:17 | 52.29071 | 7.27188 | 35974 ft | 442 kts | 264° |
| 2026-05-04 21:18 | 52.28455 | 7.17207 | 35981 ft | 442 kts | 264° |
| 2026-05-04 21:18 | 52.27829 | 7.07189 | 35985 ft | 442 kts | 264° |
| 2026-05-04 21:19 | 52.27195 | 6.97207 | 35988 ft | 442 kts | 264° |
| 2026-05-04 21:19 | 52.26556 | 6.87263 | 35989 ft | 442 kts | 264° |
| 2026-05-04 21:20 | 52.25905 | 6.77281 | 35990 ft | 442 kts | 264° |
| 2026-05-04 21:20 | 52.25246 | 6.67311 | 35990 ft | 442 kts | 264° |
| 2026-05-04 21:21 | 52.24580 | 6.57352 | 35991 ft | 442 kts | 264° |
| 2026-05-04 21:21 | 52.23902 | 6.47353 | 35989 ft | 442 kts | 264° |
| 2026-05-04 21:22 | 52.23216 | 6.37361 | 35989 ft | 442 kts | 264° |
| 2026-05-04 21:22 | 52.22524 | 6.27397 | 35989 ft | 442 kts | 263° |
| 2026-05-04 21:23 | 52.21827 | 6.17460 | 35989 ft | 443 kts | 263° |
| 2026-05-04 21:23 | 52.21115 | 6.07471 | 35991 ft | 443 kts | 263° |
| 2026-05-04 21:24 | 52.20400 | 5.97546 | 35992 ft | 443 kts | 263° |
| 2026-05-04 21:24 | 52.19670 | 5.87540 | 35992 ft | 443 kts | 263° |
| 2026-05-04 21:25 | 52.18938 | 5.77630 | 35992 ft | 443 kts | 263° |
| 2026-05-04 21:25 | 52.18195 | 5.67691 | 35992 ft | 443 kts | 263° |
| 2026-05-04 21:26 | 52.17442 | 5.57717 | 35991 ft | 443 kts | 263° |
| 2026-05-04 21:26 | 52.16679 | 5.47744 | 35991 ft | 443 kts | 263° |
| 2026-05-04 21:27 | 52.15916 | 5.37871 | 35992 ft | 443 kts | 263° |
| 2026-05-04 21:27 | 52.15136 | 5.27876 | 36005 ft | 443 kts | 262° |
| 2026-05-04 21:28 | 52.14356 | 5.17992 | 36014 ft | 443 kts | 262° |
| 2026-05-04 21:28 | 52.13560 | 5.08029 | 36018 ft | 443 kts | 262° |
| 2026-05-04 21:29 | 52.12758 | 4.98092 | 36019 ft | 443 kts | 262° |
| 2026-05-04 21:29 | 52.11947 | 4.88162 | 36018 ft | 443 kts | 262° |
| 2026-05-04 21:30 | 52.11132 | 4.78290 | 36017 ft | 443 kts | 262° |
| 2026-05-04 21:30 | 52.10302 | 4.68338 | 36018 ft | 443 kts | 262° |
| 2026-05-04 21:31 | 52.09047 | 4.53478 | 36013 ft | 443 kts | 262° |
| 2026-05-04 21:32 | 52.08201 | 4.43599 | 36002 ft | 443 kts | 262° |
| 2026-05-04 21:32 | 52.07348 | 4.33740 | 35996 ft | 438 kts | 262° |
| 2026-05-04 21:33 | 52.06506 | 4.24078 | 35994 ft | 431 kts | 262° |
| 2026-05-04 21:33 | 52.05651 | 4.14384 | 35992 ft | 431 kts | 262° |
| 2026-05-04 21:34 | 52.04793 | 4.04747 | 35990 ft | 431 kts | 262° |
| 2026-05-04 21:34 | 52.03931 | 3.95156 | 35992 ft | 431 kts | 262° |
| 2026-05-04 21:35 | 52.03053 | 3.85495 | 36005 ft | 431 kts | 262° |
| 2026-05-04 21:35 | 52.02171 | 3.75877 | 36013 ft | 431 kts | 262° |
| 2026-05-04 21:36 | 52.01282 | 3.66285 | 36016 ft | 431 kts | 262° |
| 2026-05-04 21:36 | 52.00378 | 3.56620 | 35938 ft | 433 kts | 262° |
| 2026-05-04 21:36 | 51.99928 | 3.51844 | 35679 ft | 430 kts | 262° |
| 2026-05-04 21:37 | 51.99475 | 3.47063 | 35428 ft | 427 kts | 262° |
| 2026-05-04 21:37 | 51.99027 | 3.42365 | 35181 ft | 424 kts | 262° |
| 2026-05-04 21:37 | 51.98576 | 3.37661 | 34931 ft | 422 kts | 262° |
| 2026-05-04 21:37 | 51.98122 | 3.32971 | 34682 ft | 422 kts | 261° |
| 2026-05-04 21:38 | 51.97662 | 3.28216 | 34430 ft | 423 kts | 261° |
| 2026-05-04 21:38 | 51.97213 | 3.23576 | 34183 ft | 423 kts | 261° |
| 2026-05-04 21:38 | 51.96758 | 3.18850 | 33932 ft | 423 kts | 261° |
| 2026-05-04 21:38 | 51.96403 | 3.14110 | 33681 ft | 424 kts | 264° |
| 2026-05-04 21:39 | 51.96102 | 3.09359 | 33431 ft | 424 kts | 264° |
| 2026-05-04 21:39 | 51.95802 | 3.04621 | 33183 ft | 425 kts | 264° |
| 2026-05-04 21:39 | 51.95493 | 2.99818 | 32931 ft | 425 kts | 264° |
| 2026-05-04 21:39 | 51.95182 | 2.95050 | 32682 ft | 426 kts | 264° |
| 2026-05-04 21:40 | 51.94867 | 2.90291 | 32433 ft | 427 kts | 264° |
| 2026-05-04 21:40 | 51.94550 | 2.85569 | 32186 ft | 427 kts | 264° |
| 2026-05-04 21:40 | 51.94224 | 2.80763 | 31936 ft | 428 kts | 264° |
| 2026-05-04 21:40 | 51.93897 | 2.75966 | 31687 ft | 428 kts | 264° |
| 2026-05-04 21:41 | 51.93570 | 2.71168 | 31437 ft | 429 kts | 264° |
| 2026-05-04 21:41 | 51.93246 | 2.66414 | 31190 ft | 429 kts | 264° |
| 2026-05-04 21:41 | 51.92920 | 2.61585 | 30940 ft | 430 kts | 264° |
| 2026-05-04 21:41 | 51.92594 | 2.56783 | 30691 ft | 430 kts | 264° |
| 2026-05-04 21:42 | 51.92260 | 2.51952 | 30442 ft | 431 kts | 264° |
| 2026-05-04 21:42 | 51.91921 | 2.47123 | 30193 ft | 431 kts | 264° |
| 2026-05-04 21:42 | 51.91580 | 2.42305 | 29944 ft | 432 kts | 264° |
| 2026-05-04 21:42 | 51.91241 | 2.37512 | 29696 ft | 432 kts | 264° |
| 2026-05-04 21:43 | 51.90956 | 2.32639 | 29377 ft | 433 kts | 266° |
| 2026-05-04 21:43 | 51.90837 | 2.27774 | 28958 ft | 434 kts | 269° |
| 2026-05-04 21:43 | 51.90791 | 2.22907 | 28459 ft | 435 kts | 269° |
| 2026-05-04 21:43 | 51.90751 | 2.18005 | 27845 ft | 437 kts | 269° |
| 2026-05-04 21:44 | 51.90706 | 2.13073 | 27203 ft | 438 kts | 269° |
| 2026-05-04 21:44 | 51.90658 | 2.08187 | 26663 ft | 437 kts | 269° |
| 2026-05-04 21:44 | 51.90605 | 2.03261 | 26176 ft | 435 kts | 269° |
| 2026-05-04 21:44 | 51.90549 | 1.98419 | 25702 ft | 432 kts | 269° |
| 2026-05-04 21:45 | 51.90490 | 1.93610 | 25230 ft | 430 kts | 269° |
| 2026-05-04 21:45 | 51.90429 | 1.88759 | 24752 ft | 427 kts | 269° |
| 2026-05-04 21:45 | 51.90366 | 1.83994 | 24281 ft | 425 kts | 269° |
| 2026-05-04 21:45 | 51.90303 | 1.79391 | 23824 ft | 422 kts | 269° |
| 2026-05-04 21:46 | 51.90236 | 1.74633 | 23350 ft | 420 kts | 269° |
| 2026-05-04 21:46 | 51.90168 | 1.69905 | 22877 ft | 418 kts | 269° |
| 2026-05-04 21:46 | 51.90099 | 1.65272 | 22411 ft | 415 kts | 269° |
| 2026-05-04 21:46 | 51.90028 | 1.60623 | 21944 ft | 413 kts | 269° |
| 2026-05-04 21:47 | 51.89951 | 1.55974 | 21474 ft | 410 kts | 269° |
| 2026-05-04 21:47 | 51.89862 | 1.51348 | 21005 ft | 408 kts | 268° |
| 2026-05-04 21:47 | 51.89775 | 1.46778 | 20539 ft | 406 kts | 269° |
| 2026-05-04 21:47 | 51.89690 | 1.42290 | 20151 ft | 401 kts | 269° |
| 2026-05-04 21:48 | 51.89608 | 1.37811 | 20058 ft | 389 kts | 269° |
| 2026-05-04 21:48 | 51.89529 | 1.33513 | 20051 ft | 390 kts | 268° |
| 2026-05-04 21:48 | 51.89448 | 1.29100 | 20049 ft | 391 kts | 268° |
| 2026-05-04 21:48 | 51.89367 | 1.24739 | 20050 ft | 391 kts | 268° |
| 2026-05-04 21:49 | 51.89285 | 1.20359 | 20050 ft | 391 kts | 268° |
| 2026-05-04 21:49 | 51.89201 | 1.15954 | 20049 ft | 391 kts | 268° |
| 2026-05-04 21:49 | 51.89117 | 1.11570 | 20048 ft | 391 kts | 268° |
| 2026-05-04 21:49 | 51.89030 | 1.07171 | 20047 ft | 391 kts | 268° |
| 2026-05-04 21:50 | 51.88940 | 1.02739 | 20047 ft | 391 kts | 268° |
| 2026-05-04 21:50 | 51.88850 | 0.98328 | 20046 ft | 391 kts | 268° |
| 2026-05-04 21:50 | 51.88760 | 0.93990 | 20046 ft | 391 kts | 268° |
| 2026-05-04 21:50 | 51.88665 | 0.89521 | 20114 ft | 395 kts | 268° |
| 2026-05-04 21:51 | 51.88570 | 0.85125 | 20049 ft | 388 kts | 268° |
| 2026-05-04 21:51 | 51.88475 | 0.80822 | 19740 ft | 384 kts | 268° |
| 2026-05-04 21:51 | 51.88378 | 0.76492 | 19174 ft | 385 kts | 268° |
| 2026-05-04 21:51 | 51.88281 | 0.72213 | 18685 ft | 384 kts | 268° |
| 2026-05-04 21:52 | 51.88181 | 0.67891 | 18238 ft | 381 kts | 268° |
| 2026-05-04 21:52 | 51.88081 | 0.63639 | 17801 ft | 379 kts | 268° |
| 2026-05-04 21:52 | 51.87980 | 0.59421 | 17362 ft | 376 kts | 268° |
| 2026-05-04 21:52 | 51.87877 | 0.55159 | 16917 ft | 374 kts | 268° |
| 2026-05-04 21:53 | 51.87775 | 0.51001 | 16482 ft | 371 kts | 268° |
| 2026-05-04 21:53 | 51.87671 | 0.46829 | 16219 ft | 363 kts | 268° |
| 2026-05-04 21:53 | 51.87568 | 0.42765 | 16041 ft | 353 kts | 268° |
| 2026-05-04 21:53 | 51.87466 | 0.38846 | 15869 ft | 344 kts | 268° |
| 2026-05-04 21:54 | 51.87366 | 0.35013 | 15683 ft | 336 kts | 268° |
| 2026-05-04 21:54 | 51.87268 | 0.31283 | 15109 ft | 341 kts | 267° |
| 2026-05-04 21:54 | 51.87165 | 0.27405 | 14504 ft | 345 kts | 267° |
| 2026-05-04 21:54 | 51.87061 | 0.23534 | 13976 ft | 347 kts | 267° |
| 2026-05-04 21:55 | 51.86954 | 0.19590 | 13470 ft | 348 kts | 267° |
| 2026-05-04 21:55 | 51.86846 | 0.15679 | 12969 ft | 349 kts | 267° |
| 2026-05-04 21:55 | 51.86736 | 0.11731 | 12465 ft | 349 kts | 267° |
| 2026-05-04 21:55 | 51.86626 | 0.07816 | 11965 ft | 349 kts | 267° |
| 2026-05-04 21:56 | 51.86514 | 0.03903 | 11466 ft | 349 kts | 267° |
| 2026-05-04 21:56 | 51.86400 | -0.00049 | 10962 ft | 349 kts | 267° |
| 2026-05-04 21:56 | 51.86284 | -0.04004 | 10456 ft | 349 kts | 267° |
| 2026-05-04 21:56 | 51.86167 | -0.07943 | 9856 ft | 352 kts | 267° |
| 2026-05-04 21:57 | 51.86049 | -0.11913 | 5765 ft | 353 kts | 267° |
| 2026-05-04 21:57 | 51.85929 | -0.15886 | 5163 ft | 354 kts | 267° |
| 2026-05-04 21:57 | 51.85806 | -0.19887 | 4557 ft | 354 kts | 267° |
| 2026-05-04 21:57 | 51.85683 | -0.23817 | 3962 ft | 354 kts | 267° |
| 2026-05-04 21:58 | 51.85580 | -0.27352 | 3325 ft | 293 kts | 267° |
| 2026-05-04 21:58 | 51.85480 | -0.30540 | 3073 ft | 209 kts | 267° |
| 2026-05-04 21:58 | 51.85400 | -0.33017 | 2978 ft | 230 kts | 267° |
| 2026-05-04 21:58 | 51.85314 | -0.35527 | 2979 ft | 220 kts | 267° |
| 2026-05-04 21:59 | 51.85229 | -0.38014 | 2997 ft | 219 kts | 267° |
| 2026-05-04 21:59 | 51.85150 | -0.40383 | 2983 ft | 202 kts | 267° |
| 2026-05-04 21:59 | 51.85076 | -0.42589 | 2795 ft | 193 kts | 267° |
| 2026-05-04 21:59 | 51.85004 | -0.44730 | 2611 ft | 184 kts | 267° |
| 2026-05-04 22:00 | 51.84937 | -0.46742 | 2432 ft | 176 kts | 267° |
| 2026-05-04 22:00 | 51.84872 | -0.48663 | 2273 ft | 165 kts | 267° |
| 2026-05-04 22:00 | 51.85036 | -0.50455 | 2030 ft | 159 kts | 305° |
| 2026-05-04 22:00 | 51.85941 | -0.51221 | 2040 ft | 160 kts | 6° |
| 2026-05-04 22:01 | 51.86870 | -0.50386 | 1906 ft | 151 kts | 64° |
| 2026-05-04 22:01 | 51.87045 | -0.48762 | 1753 ft | 151 kts | 92° |
| 2026-05-04 22:01 | 51.86980 | -0.47052 | 1555 ft | 151 kts | 96° |
| 2026-05-04 22:01 | 51.86883 | -0.45359 | 1357 ft | 150 kts | 95° |
| 2026-05-04 22:02 | 51.86788 | -0.43682 | 1163 ft | 150 kts | 92° |
| 2026-05-04 22:02 | 51.86791 | -0.42002 | 981 ft | 149 kts | 84° |
| 2026-05-04 22:02 | 51.86925 | -0.40342 | 794 ft | 149 kts | 78° |
| 2026-05-04 22:02 | 51.87133 | -0.38706 | 607 ft | 147 kts | 73° |
| 2026-05-04 22:03 | 51.87402 | -0.37176 | 532 ft | 130 kts | 73° |
| 2026-05-04 22:03 | 51.87609 | -0.36003 | 515 ft | 72 kts | 74° |
| 2026-05-04 22:03 | 51.87669 | -0.35651 | 504 ft | 12 kts | 75° |
| 2026-05-04 22:03 | 51.87688 | -0.35480 | 500 ft | 14 kts | 93° |
| 2026-05-04 22:04 | 51.87713 | -0.35409 | 498 ft | 9 kts | 301° |
| 2026-05-04 22:04 | 51.87693 | -0.35509 | 500 ft | 9 kts | 248° |
| 2026-05-04 22:04 | 51.87673 | -0.35617 | 503 ft | 10 kts | 256° |
| 2026-05-04 22:04 | 51.87655 | -0.35737 | 506 ft | 11 kts | 255° |
| 2026-05-04 22:05 | 51.87638 | -0.35868 | 510 ft | 9 kts | 284° |
| 2026-05-04 22:05 | 51.87702 | -0.35931 | 509 ft | 14 kts | 345° |